sensor_id;sensor_type;location;lat;lon;timestamp;P1;durP1;ratioP1;P2;durP2;ratioP2
14732;SDS011;7457;50.960;6.830;2023-12-28T00:00:04;4.75;;;2.25;;
14732;SDS011;7457;50.960;6.830;2023-12-28T00:02:30;2.42;;;2.03;;
14732;SDS011;7457;50.960;6.830;2023-12-28T00:04:56;3.55;;;1.70;;
14732;SDS011;7457;50.960;6.830;2023-12-28T00:07:22;2.95;;;1.90;;
14732;SDS011;7457;50.960;6.830;2023-12-28T00:09:47;2.25;;;1.83;;
14732;SDS011;7457;50.960;6.830;2023-12-28T00:12:13;2.00;;;1.90;;
14732;SDS011;7457;50.960;6.830;2023-12-28T00:14:38;3.20;;;1.75;;
14732;SDS011;7457;50.960;6.830;2023-12-28T00:17:04;2.47;;;1.80;;
14732;SDS011;7457;50.960;6.830;2023-12-28T00:19:30;1.80;;;1.70;;
14732;SDS011;7457;50.960;6.830;2023-12-28T00:21:55;2.47;;;1.80;;
14732;SDS011;7457;50.960;6.830;2023-12-28T00:24:21;3.38;;;2.00;;
14732;SDS011;7457;50.960;6.830;2023-12-28T00:26:46;2.90;;;2.08;;
14732;SDS011;7457;50.960;6.830;2023-12-28T00:29:12;2.08;;;1.73;;
14732;SDS011;7457;50.960;6.830;2023-12-28T00:31:38;1.98;;;1.77;;
14732;SDS011;7457;50.960;6.830;2023-12-28T00:34:03;1.90;;;1.73;;
14732;SDS011;7457;50.960;6.830;2023-12-28T00:36:29;3.03;;;1.90;;
14732;SDS011;7457;50.960;6.830;2023-12-28T00:38:54;1.90;;;1.70;;
14732;SDS011;7457;50.960;6.830;2023-12-28T00:41:20;4.88;;;1.70;;
14732;SDS011;7457;50.960;6.830;2023-12-28T00:43:46;1.98;;;1.70;;
14732;SDS011;7457;50.960;6.830;2023-12-28T00:46:11;1.73;;;1.63;;
14732;SDS011;7457;50.960;6.830;2023-12-28T00:48:37;3.25;;;1.60;;
14732;SDS011;7457;50.960;6.830;2023-12-28T00:51:03;2.28;;;2.00;;
14732;SDS011;7457;50.960;6.830;2023-12-28T00:53:28;1.88;;;1.77;;
14732;SDS011;7457;50.960;6.830;2023-12-28T00:55:54;2.47;;;1.98;;
14732;SDS011;7457;50.960;6.830;2023-12-28T00:58:20;2.42;;;1.85;;
14732;SDS011;7457;50.960;6.830;2023-12-28T01:00:45;2.00;;;1.83;;
14732;SDS011;7457;50.960;6.830;2023-12-28T01:03:11;2.35;;;1.80;;
14732;SDS011;7457;50.960;6.830;2023-12-28T01:05:37;2.83;;;2.00;;
14732;SDS011;7457;50.960;6.830;2023-12-28T01:08:02;4.45;;;1.98;;
14732;SDS011;7457;50.960;6.830;2023-12-28T01:10:28;2.42;;;2.08;;
14732;SDS011;7457;50.960;6.830;2023-12-28T01:12:54;2.95;;;2.10;;
14732;SDS011;7457;50.960;6.830;2023-12-28T01:15:19;3.13;;;1.92;;
14732;SDS011;7457;50.960;6.830;2023-12-28T01:17:45;1.98;;;1.77;;
14732;SDS011;7457;50.960;6.830;2023-12-28T01:20:11;3.53;;;2.08;;
14732;SDS011;7457;50.960;6.830;2023-12-28T01:22:37;2.65;;;1.60;;
14732;SDS011;7457;50.960;6.830;2023-12-28T01:25:03;3.78;;;2.00;;
14732;SDS011;7457;50.960;6.830;2023-12-28T01:27:29;3.30;;;2.22;;
14732;SDS011;7457;50.960;6.830;2023-12-28T01:29:55;1.83;;;1.73;;
14732;SDS011;7457;50.960;6.830;2023-12-28T01:32:20;3.28;;;1.90;;
14732;SDS011;7457;50.960;6.830;2023-12-28T01:34:46;2.10;;;1.70;;
14732;SDS011;7457;50.960;6.830;2023-12-28T01:37:12;1.63;;;1.52;;
14732;SDS011;7457;50.960;6.830;2023-12-28T01:39:38;1.75;;;1.65;;
14732;SDS011;7457;50.960;6.830;2023-12-28T01:42:04;1.58;;;1.30;;
14732;SDS011;7457;50.960;6.830;2023-12-28T01:44:29;1.63;;;1.40;;
14732;SDS011;7457;50.960;6.830;2023-12-28T01:46:55;1.38;;;1.27;;
14732;SDS011;7457;50.960;6.830;2023-12-28T01:49:22;2.75;;;1.70;;
14732;SDS011;7457;50.960;6.830;2023-12-28T01:51:48;1.83;;;1.73;;
14732;SDS011;7457;50.960;6.830;2023-12-28T01:54:15;1.52;;;1.42;;
14732;SDS011;7457;50.960;6.830;2023-12-28T01:56:41;1.45;;;1.35;;
14732;SDS011;7457;50.960;6.830;2023-12-28T01:59:08;1.73;;;1.50;;
14732;SDS011;7457;50.960;6.830;2023-12-28T02:01:34;1.70;;;1.50;;
14732;SDS011;7457;50.960;6.830;2023-12-28T02:04:00;2.08;;;1.55;;
14732;SDS011;7457;50.960;6.830;2023-12-28T02:06:26;1.58;;;1.40;;
14732;SDS011;7457;50.960;6.830;2023-12-28T02:08:52;2.10;;;1.58;;
14732;SDS011;7457;50.960;6.830;2023-12-28T02:11:18;4.07;;;1.75;;
14732;SDS011;7457;50.960;6.830;2023-12-28T02:13:45;1.85;;;1.70;;
14732;SDS011;7457;50.960;6.830;2023-12-28T02:16:20;2.80;;;1.73;;
14732;SDS011;7457;50.960;6.830;2023-12-28T02:18:54;1.98;;;1.80;;
14732;SDS011;7457;50.960;6.830;2023-12-28T02:21:24;1.88;;;1.60;;
14732;SDS011;7457;50.960;6.830;2023-12-28T02:23:50;3.00;;;1.80;;
14732;SDS011;7457;50.960;6.830;2023-12-28T02:26:16;1.50;;;1.40;;
14732;SDS011;7457;50.960;6.830;2023-12-28T02:28:43;4.20;;;1.63;;
14732;SDS011;7457;50.960;6.830;2023-12-28T02:31:11;1.88;;;1.65;;
14732;SDS011;7457;50.960;6.830;2023-12-28T02:33:48;2.35;;;1.58;;
14732;SDS011;7457;50.960;6.830;2023-12-28T02:36:19;2.25;;;1.73;;
14732;SDS011;7457;50.960;6.830;2023-12-28T02:38:48;1.70;;;1.60;;
14732;SDS011;7457;50.960;6.830;2023-12-28T02:41:16;2.03;;;1.50;;
14732;SDS011;7457;50.960;6.830;2023-12-28T02:43:43;1.73;;;1.63;;
14732;SDS011;7457;50.960;6.830;2023-12-28T02:46:08;2.10;;;1.90;;
14732;SDS011;7457;50.960;6.830;2023-12-28T02:48:34;3.33;;;1.90;;
14732;SDS011;7457;50.960;6.830;2023-12-28T02:51:00;1.90;;;1.67;;
14732;SDS011;7457;50.960;6.830;2023-12-28T02:53:25;2.17;;;1.60;;
14732;SDS011;7457;50.960;6.830;2023-12-28T02:55:51;2.03;;;1.50;;
14732;SDS011;7457;50.960;6.830;2023-12-28T02:58:17;1.42;;;1.33;;
14732;SDS011;7457;50.960;6.830;2023-12-28T03:00:42;3.10;;;1.92;;
14732;SDS011;7457;50.960;6.830;2023-12-28T03:03:08;3.90;;;1.55;;
14732;SDS011;7457;50.960;6.830;2023-12-28T03:05:34;1.70;;;1.60;;
14732;SDS011;7457;50.960;6.830;2023-12-28T03:07:59;1.70;;;1.60;;
14732;SDS011;7457;50.960;6.830;2023-12-28T03:10:25;2.85;;;1.50;;
14732;SDS011;7457;50.960;6.830;2023-12-28T03:12:51;2.33;;;1.90;;
14732;SDS011;7457;50.960;6.830;2023-12-28T03:15:16;1.75;;;1.65;;
14732;SDS011;7457;50.960;6.830;2023-12-28T03:17:42;2.20;;;2.00;;
14732;SDS011;7457;50.960;6.830;2023-12-28T03:20:08;2.20;;;2.00;;
14732;SDS011;7457;50.960;6.830;2023-12-28T03:22:35;2.10;;;1.88;;
14732;SDS011;7457;50.960;6.830;2023-12-28T03:25:00;4.97;;;2.03;;
14732;SDS011;7457;50.960;6.830;2023-12-28T03:27:26;2.03;;;1.85;;
14732;SDS011;7457;50.960;6.830;2023-12-28T03:29:52;2.47;;;1.98;;
14732;SDS011;7457;50.960;6.830;2023-12-28T03:32:17;2.70;;;1.90;;
14732;SDS011;7457;50.960;6.830;2023-12-28T03:34:43;2.20;;;2.00;;
14732;SDS011;7457;50.960;6.830;2023-12-28T03:37:09;2.25;;;2.05;;
14732;SDS011;7457;50.960;6.830;2023-12-28T03:39:36;1.88;;;1.55;;
14732;SDS011;7457;50.960;6.830;2023-12-28T03:42:02;2.95;;;1.85;;
14732;SDS011;7457;50.960;6.830;2023-12-28T03:44:28;2.72;;;1.83;;
14732;SDS011;7457;50.960;6.830;2023-12-28T03:46:53;2.53;;;1.92;;
14732;SDS011;7457;50.960;6.830;2023-12-28T03:49:19;1.90;;;1.80;;
14732;SDS011;7457;50.960;6.830;2023-12-28T03:51:45;2.83;;;1.70;;
14732;SDS011;7457;50.960;6.830;2023-12-28T03:54:16;3.10;;;2.33;;
14732;SDS011;7457;50.960;6.830;2023-12-28T03:56:43;2.55;;;2.30;;
14732;SDS011;7457;50.960;6.830;2023-12-28T03:59:08;4.10;;;2.40;;
14732;SDS011;7457;50.960;6.830;2023-12-28T04:01:34;1.80;;;1.65;;
14732;SDS011;7457;50.960;6.830;2023-12-28T04:04:01;2.63;;;1.92;;
14732;SDS011;7457;50.960;6.830;2023-12-28T04:06:26;3.20;;;1.70;;
14732;SDS011;7457;50.960;6.830;2023-12-28T04:08:52;4.07;;;2.00;;
14732;SDS011;7457;50.960;6.830;2023-12-28T04:11:18;2.15;;;1.75;;
14732;SDS011;7457;50.960;6.830;2023-12-28T04:13:44;2.72;;;1.80;;
14732;SDS011;7457;50.960;6.830;2023-12-28T04:16:13;2.67;;;2.13;;
14732;SDS011;7457;50.960;6.830;2023-12-28T04:18:39;1.95;;;1.75;;
14732;SDS011;7457;50.960;6.830;2023-12-28T04:21:07;3.50;;;1.70;;
14732;SDS011;7457;50.960;6.830;2023-12-28T04:23:34;3.17;;;2.15;;
14732;SDS011;7457;50.960;6.830;2023-12-28T04:26:01;2.45;;;1.65;;
14732;SDS011;7457;50.960;6.830;2023-12-28T04:28:27;3.97;;;1.85;;
14732;SDS011;7457;50.960;6.830;2023-12-28T04:30:52;2.63;;;2.00;;
14732;SDS011;7457;50.960;6.830;2023-12-28T04:33:18;1.80;;;1.70;;
14732;SDS011;7457;50.960;6.830;2023-12-28T04:35:44;2.33;;;1.85;;
14732;SDS011;7457;50.960;6.830;2023-12-28T04:38:10;1.73;;;1.63;;
14732;SDS011;7457;50.960;6.830;2023-12-28T04:40:36;1.70;;;1.60;;
14732;SDS011;7457;50.960;6.830;2023-12-28T04:43:02;2.20;;;2.00;;
14732;SDS011;7457;50.960;6.830;2023-12-28T04:45:28;1.98;;;1.77;;
14732;SDS011;7457;50.960;6.830;2023-12-28T04:47:53;2.47;;;1.90;;
14732;SDS011;7457;50.960;6.830;2023-12-28T04:50:19;2.03;;;1.90;;
14732;SDS011;7457;50.960;6.830;2023-12-28T04:52:45;3.75;;;1.90;;
14732;SDS011;7457;50.960;6.830;2023-12-28T04:55:10;5.30;;;2.30;;
14732;SDS011;7457;50.960;6.830;2023-12-28T04:57:36;2.17;;;1.90;;
14732;SDS011;7457;50.960;6.830;2023-12-28T05:00:02;2.20;;;2.00;;
14732;SDS011;7457;50.960;6.830;2023-12-28T05:02:28;4.43;;;2.22;;
14732;SDS011;7457;50.960;6.830;2023-12-28T05:04:54;2.00;;;1.80;;
14732;SDS011;7457;50.960;6.830;2023-12-28T05:07:19;4.00;;;2.17;;
14732;SDS011;7457;50.960;6.830;2023-12-28T05:09:45;4.30;;;1.88;;
14732;SDS011;7457;50.960;6.830;2023-12-28T05:12:11;3.05;;;1.90;;
14732;SDS011;7457;50.960;6.830;2023-12-28T05:14:37;2.10;;;2.00;;
14732;SDS011;7457;50.960;6.830;2023-12-28T05:17:02;2.28;;;2.08;;
14732;SDS011;7457;50.960;6.830;2023-12-28T05:19:28;1.90;;;1.70;;
14732;SDS011;7457;50.960;6.830;2023-12-28T05:21:54;2.60;;;2.40;;
14732;SDS011;7457;50.960;6.830;2023-12-28T05:24:20;2.88;;;2.47;;
14732;SDS011;7457;50.960;6.830;2023-12-28T05:26:46;2.53;;;2.10;;
14732;SDS011;7457;50.960;6.830;2023-12-28T05:29:11;2.33;;;2.03;;
14732;SDS011;7457;50.960;6.830;2023-12-28T05:31:37;2.40;;;2.20;;
14732;SDS011;7457;50.960;6.830;2023-12-28T05:34:03;4.07;;;2.60;;
14732;SDS011;7457;50.960;6.830;2023-12-28T05:36:30;2.28;;;2.08;;
14732;SDS011;7457;50.960;6.830;2023-12-28T05:38:55;4.20;;;2.65;;
14732;SDS011;7457;50.960;6.830;2023-12-28T05:41:21;4.95;;;3.20;;
14732;SDS011;7457;50.960;6.830;2023-12-28T05:43:46;3.58;;;2.15;;
14732;SDS011;7457;50.960;6.830;2023-12-28T05:46:12;3.75;;;2.30;;
14732;SDS011;7457;50.960;6.830;2023-12-28T05:48:38;2.75;;;2.40;;
14732;SDS011;7457;50.960;6.830;2023-12-28T05:51:04;3.03;;;2.50;;
14732;SDS011;7457;50.960;6.830;2023-12-28T05:53:30;3.78;;;2.35;;
14732;SDS011;7457;50.960;6.830;2023-12-28T05:55:55;3.85;;;2.50;;
14732;SDS011;7457;50.960;6.830;2023-12-28T05:58:21;2.95;;;2.65;;
14732;SDS011;7457;50.960;6.830;2023-12-28T06:00:47;4.15;;;2.15;;
14732;SDS011;7457;50.960;6.830;2023-12-28T06:03:13;2.65;;;2.45;;
14732;SDS011;7457;50.960;6.830;2023-12-28T06:05:39;2.55;;;2.35;;
14732;SDS011;7457;50.960;6.830;2023-12-28T06:08:04;2.40;;;2.20;;
14732;SDS011;7457;50.960;6.830;2023-12-28T06:10:30;2.50;;;2.30;;
14732;SDS011;7457;50.960;6.830;2023-12-28T06:12:56;4.25;;;2.40;;
14732;SDS011;7457;50.960;6.830;2023-12-28T06:15:22;3.42;;;2.42;;
14732;SDS011;7457;50.960;6.830;2023-12-28T06:17:47;4.07;;;2.80;;
14732;SDS011;7457;50.960;6.830;2023-12-28T06:20:13;3.10;;;2.38;;
14732;SDS011;7457;50.960;6.830;2023-12-28T06:22:39;3.80;;;2.55;;
14732;SDS011;7457;50.960;6.830;2023-12-28T06:25:05;2.50;;;2.30;;
14732;SDS011;7457;50.960;6.830;2023-12-28T06:27:31;2.72;;;2.00;;
14732;SDS011;7457;50.960;6.830;2023-12-28T06:29:57;5.88;;;2.55;;
14732;SDS011;7457;50.960;6.830;2023-12-28T06:32:22;2.53;;;1.80;;
14732;SDS011;7457;50.960;6.830;2023-12-28T06:34:48;1.90;;;1.70;;
14732;SDS011;7457;50.960;6.830;2023-12-28T06:37:14;3.53;;;2.00;;
14732;SDS011;7457;50.960;6.830;2023-12-28T06:39:40;2.50;;;1.90;;
14732;SDS011;7457;50.960;6.830;2023-12-28T06:42:06;2.20;;;1.73;;
14732;SDS011;7457;50.960;6.830;2023-12-28T06:44:32;2.42;;;2.08;;
14732;SDS011;7457;50.960;6.830;2023-12-28T06:46:58;2.95;;;1.70;;
14732;SDS011;7457;50.960;6.830;2023-12-28T06:49:24;8.43;;;2.20;;
14732;SDS011;7457;50.960;6.830;2023-12-28T06:51:50;3.95;;;1.80;;
14732;SDS011;7457;50.960;6.830;2023-12-28T06:54:16;3.13;;;1.92;;
14732;SDS011;7457;50.960;6.830;2023-12-28T06:56:42;4.70;;;2.03;;
14732;SDS011;7457;50.960;6.830;2023-12-28T06:59:08;3.13;;;2.30;;
14732;SDS011;7457;50.960;6.830;2023-12-28T07:01:40;3.17;;;1.80;;
14732;SDS011;7457;50.960;6.830;2023-12-28T07:04:06;4.00;;;2.13;;
14732;SDS011;7457;50.960;6.830;2023-12-28T07:06:32;3.25;;;2.42;;
14732;SDS011;7457;50.960;6.830;2023-12-28T07:08:58;4.90;;;2.60;;
14732;SDS011;7457;50.960;6.830;2023-12-28T07:11:23;4.75;;;2.50;;
14732;SDS011;7457;50.960;6.830;2023-12-28T07:13:49;5.22;;;2.95;;
14732;SDS011;7457;50.960;6.830;2023-12-28T07:16:15;2.97;;;2.20;;
14732;SDS011;7457;50.960;6.830;2023-12-28T07:18:40;3.22;;;2.60;;
14732;SDS011;7457;50.960;6.830;2023-12-28T07:21:06;3.67;;;2.40;;
14732;SDS011;7457;50.960;6.830;2023-12-28T07:23:34;3.25;;;2.60;;
14732;SDS011;7457;50.960;6.830;2023-12-28T07:26:00;3.10;;;2.67;;
14732;SDS011;7457;50.960;6.830;2023-12-28T07:28:26;3.10;;;2.80;;
14732;SDS011;7457;50.960;6.830;2023-12-28T07:30:52;3.90;;;2.80;;
14732;SDS011;7457;50.960;6.830;2023-12-28T07:33:18;2.40;;;2.20;;
14732;SDS011;7457;50.960;6.830;2023-12-28T07:35:44;4.05;;;2.25;;
14732;SDS011;7457;50.960;6.830;2023-12-28T07:38:10;3.50;;;2.50;;
14732;SDS011;7457;50.960;6.830;2023-12-28T07:40:36;3.15;;;2.53;;
14732;SDS011;7457;50.960;6.830;2023-12-28T07:43:01;2.95;;;2.13;;
14732;SDS011;7457;50.960;6.830;2023-12-28T07:45:27;4.05;;;2.75;;
14732;SDS011;7457;50.960;6.830;2023-12-28T07:47:52;9.27;;;2.70;;
14732;SDS011;7457;50.960;6.830;2023-12-28T07:50:18;3.78;;;2.42;;
14732;SDS011;7457;50.960;6.830;2023-12-28T07:52:44;5.45;;;2.85;;
14732;SDS011;7457;50.960;6.830;2023-12-28T07:55:14;3.92;;;2.85;;
14732;SDS011;7457;50.960;6.830;2023-12-28T07:57:39;6.70;;;3.17;;
14732;SDS011;7457;50.960;6.830;2023-12-28T08:00:06;3.30;;;2.50;;
14732;SDS011;7457;50.960;6.830;2023-12-28T08:02:32;3.42;;;2.67;;
14732;SDS011;7457;50.960;6.830;2023-12-28T08:04:58;8.05;;;2.95;;
14732;SDS011;7457;50.960;6.830;2023-12-28T08:07:23;6.45;;;2.72;;
14732;SDS011;7457;50.960;6.830;2023-12-28T08:09:49;4.57;;;2.58;;
14732;SDS011;7457;50.960;6.830;2023-12-28T08:12:15;2.67;;;2.08;;
14732;SDS011;7457;50.960;6.830;2023-12-28T08:14:42;7.40;;;2.60;;
14732;SDS011;7457;50.960;6.830;2023-12-28T08:17:08;7.10;;;2.67;;
14732;SDS011;7457;50.960;6.830;2023-12-28T08:19:33;5.18;;;2.65;;
14732;SDS011;7457;50.960;6.830;2023-12-28T08:21:59;4.10;;;2.55;;
14732;SDS011;7457;50.960;6.830;2023-12-28T08:24:25;4.45;;;2.63;;
14732;SDS011;7457;50.960;6.830;2023-12-28T08:26:50;6.72;;;2.60;;
14732;SDS011;7457;50.960;6.830;2023-12-28T08:29:16;4.70;;;2.50;;
14732;SDS011;7457;50.960;6.830;2023-12-28T08:31:43;4.15;;;2.33;;
14732;SDS011;7457;50.960;6.830;2023-12-28T08:34:08;5.50;;;2.83;;
14732;SDS011;7457;50.960;6.830;2023-12-28T08:36:34;7.80;;;2.88;;
14732;SDS011;7457;50.960;6.830;2023-12-28T08:39:00;6.07;;;2.30;;
14732;SDS011;7457;50.960;6.830;2023-12-28T08:41:26;4.35;;;2.47;;
14732;SDS011;7457;50.960;6.830;2023-12-28T08:43:52;2.50;;;2.28;;
14732;SDS011;7457;50.960;6.830;2023-12-28T08:46:19;3.53;;;2.40;;
14732;SDS011;7457;50.960;6.830;2023-12-28T08:48:46;6.20;;;2.85;;
14732;SDS011;7457;50.960;6.830;2023-12-28T08:51:11;5.35;;;2.30;;
14732;SDS011;7457;50.960;6.830;2023-12-28T08:53:39;3.90;;;2.30;;
14732;SDS011;7457;50.960;6.830;2023-12-28T08:56:12;5.15;;;1.80;;
14732;SDS011;7457;50.960;6.830;2023-12-28T08:58:42;5.28;;;2.25;;
14732;SDS011;7457;50.960;6.830;2023-12-28T09:01:17;4.65;;;2.00;;
14732;SDS011;7457;50.960;6.830;2023-12-28T09:03:50;7.80;;;2.05;;
14732;SDS011;7457;50.960;6.830;2023-12-28T09:06:17;2.53;;;1.55;;
14732;SDS011;7457;50.960;6.830;2023-12-28T09:08:44;3.05;;;1.85;;
14732;SDS011;7457;50.960;6.830;2023-12-28T09:11:12;3.25;;;2.05;;
14732;SDS011;7457;50.960;6.830;2023-12-28T09:13:39;7.25;;;2.28;;
14732;SDS011;7457;50.960;6.830;2023-12-28T09:16:07;3.05;;;1.80;;
14732;SDS011;7457;50.960;6.830;2023-12-28T09:18:34;4.90;;;2.28;;
14732;SDS011;7457;50.960;6.830;2023-12-28T09:21:02;5.00;;;1.98;;
14732;SDS011;7457;50.960;6.830;2023-12-28T09:23:28;4.22;;;1.80;;
14732;SDS011;7457;50.960;6.830;2023-12-28T09:25:54;6.57;;;2.08;;
14732;SDS011;7457;50.960;6.830;2023-12-28T09:28:20;3.83;;;1.90;;
14732;SDS011;7457;50.960;6.830;2023-12-28T09:30:45;5.50;;;2.10;;
14732;SDS011;7457;50.960;6.830;2023-12-28T09:33:11;3.15;;;1.60;;
14732;SDS011;7457;50.960;6.830;2023-12-28T09:35:37;2.63;;;1.50;;
14732;SDS011;7457;50.960;6.830;2023-12-28T09:38:02;5.28;;;1.70;;
14732;SDS011;7457;50.960;6.830;2023-12-28T09:40:28;3.38;;;1.60;;
14732;SDS011;7457;50.960;6.830;2023-12-28T09:43:01;7.18;;;2.40;;
14732;SDS011;7457;50.960;6.830;2023-12-28T09:45:47;2.78;;;1.80;;
14732;SDS011;7457;50.960;6.830;2023-12-28T09:48:14;7.93;;;2.10;;
14732;SDS011;7457;50.960;6.830;2023-12-28T09:50:41;4.13;;;1.70;;
14732;SDS011;7457;50.960;6.830;2023-12-28T09:53:06;3.05;;;1.85;;
14732;SDS011;7457;50.960;6.830;2023-12-28T09:55:32;7.10;;;2.20;;
14732;SDS011;7457;50.960;6.830;2023-12-28T09:57:58;6.68;;;2.30;;
14732;SDS011;7457;50.960;6.830;2023-12-28T10:00:25;9.98;;;2.17;;
14732;SDS011;7457;50.960;6.830;2023-12-28T10:02:51;2.92;;;1.55;;
14732;SDS011;7457;50.960;6.830;2023-12-28T10:05:17;5.90;;;2.08;;
14732;SDS011;7457;50.960;6.830;2023-12-28T10:07:43;3.78;;;1.85;;
14732;SDS011;7457;50.960;6.830;2023-12-28T10:10:09;7.88;;;2.20;;
14732;SDS011;7457;50.960;6.830;2023-12-28T10:12:36;9.30;;;2.40;;
14732;SDS011;7457;50.960;6.830;2023-12-28T10:15:05;4.90;;;1.90;;
14732;SDS011;7457;50.960;6.830;2023-12-28T10:17:34;3.30;;;1.67;;
14732;SDS011;7457;50.960;6.830;2023-12-28T10:20:00;5.13;;;1.75;;
14732;SDS011;7457;50.960;6.830;2023-12-28T10:22:31;9.98;;;2.28;;
14732;SDS011;7457;50.960;6.830;2023-12-28T10:24:58;6.50;;;1.95;;
14732;SDS011;7457;50.960;6.830;2023-12-28T10:27:28;5.80;;;1.90;;
14732;SDS011;7457;50.960;6.830;2023-12-28T10:29:54;4.05;;;1.40;;
14732;SDS011;7457;50.960;6.830;2023-12-28T10:32:21;7.38;;;2.13;;
14732;SDS011;7457;50.960;6.830;2023-12-28T10:34:48;7.35;;;2.05;;
14732;SDS011;7457;50.960;6.830;2023-12-28T10:37:14;3.38;;;1.52;;
14732;SDS011;7457;50.960;6.830;2023-12-28T10:39:44;4.47;;;1.75;;
14732;SDS011;7457;50.960;6.830;2023-12-28T10:42:12;5.93;;;1.70;;
14732;SDS011;7457;50.960;6.830;2023-12-28T10:44:42;8.07;;;1.92;;
14732;SDS011;7457;50.960;6.830;2023-12-28T10:47:14;6.50;;;2.10;;
14732;SDS011;7457;50.960;6.830;2023-12-28T10:49:44;5.30;;;1.70;;
14732;SDS011;7457;50.960;6.830;2023-12-28T10:52:13;7.22;;;2.00;;
14732;SDS011;7457;50.960;6.830;2023-12-28T10:54:47;10.68;;;2.00;;
14732;SDS011;7457;50.960;6.830;2023-12-28T10:57:26;12.35;;;2.00;;
14732;SDS011;7457;50.960;6.830;2023-12-28T11:00:04;11.98;;;1.77;;
14732;SDS011;7457;50.960;6.830;2023-12-28T11:02:39;5.72;;;1.98;;
14732;SDS011;7457;50.960;6.830;2023-12-28T11:05:09;6.00;;;1.60;;
14732;SDS011;7457;50.960;6.830;2023-12-28T11:07:37;13.35;;;2.08;;
14732;SDS011;7457;50.960;6.830;2023-12-28T11:10:05;9.15;;;2.20;;
14732;SDS011;7457;50.960;6.830;2023-12-28T11:12:32;16.70;;;2.10;;
14732;SDS011;7457;50.960;6.830;2023-12-28T11:14:58;6.93;;;2.40;;
14732;SDS011;7457;50.960;6.830;2023-12-28T11:17:24;7.70;;;1.80;;
14732;SDS011;7457;50.960;6.830;2023-12-28T11:19:51;9.43;;;2.65;;
14732;SDS011;7457;50.960;6.830;2023-12-28T11:22:18;14.75;;;2.45;;
14732;SDS011;7457;50.960;6.830;2023-12-28T11:24:47;14.98;;;2.85;;
14732;SDS011;7457;50.960;6.830;2023-12-28T11:27:13;8.57;;;1.90;;
14732;SDS011;7457;50.960;6.830;2023-12-28T11:29:38;11.30;;;2.30;;
14732;SDS011;7457;50.960;6.830;2023-12-28T11:32:07;13.05;;;2.08;;
14732;SDS011;7457;50.960;6.830;2023-12-28T11:34:34;5.78;;;1.80;;
14732;SDS011;7457;50.960;6.830;2023-12-28T11:37:00;9.65;;;2.15;;
14732;SDS011;7457;50.960;6.830;2023-12-28T11:39:31;9.55;;;2.30;;
14732;SDS011;7457;50.960;6.830;2023-12-28T11:42:02;4.68;;;2.22;;
14732;SDS011;7457;50.960;6.830;2023-12-28T11:44:36;7.45;;;1.95;;
14732;SDS011;7457;50.960;6.830;2023-12-28T11:49:45;10.45;;;2.10;;
14732;SDS011;7457;50.960;6.830;2023-12-28T11:52:21;8.65;;;1.95;;
14732;SDS011;7457;50.960;6.830;2023-12-28T11:54:55;7.47;;;2.40;;
14732;SDS011;7457;50.960;6.830;2023-12-28T11:57:21;8.50;;;1.67;;
14732;SDS011;7457;50.960;6.830;2023-12-28T11:59:48;7.80;;;1.98;;
14732;SDS011;7457;50.960;6.830;2023-12-28T12:02:18;8.60;;;2.13;;
14732;SDS011;7457;50.960;6.830;2023-12-28T12:04:44;4.80;;;1.90;;
14732;SDS011;7457;50.960;6.830;2023-12-28T12:07:10;4.55;;;1.73;;
14732;SDS011;7457;50.960;6.830;2023-12-28T12:09:36;3.88;;;1.95;;
14732;SDS011;7457;50.960;6.830;2023-12-28T12:12:01;8.77;;;2.42;;
14732;SDS011;7457;50.960;6.830;2023-12-28T12:14:28;9.02;;;2.05;;
14732;SDS011;7457;50.960;6.830;2023-12-28T12:16:55;5.30;;;1.80;;
14732;SDS011;7457;50.960;6.830;2023-12-28T12:19:22;9.00;;;1.75;;
14732;SDS011;7457;50.960;6.830;2023-12-28T12:21:48;7.75;;;2.30;;
14732;SDS011;7457;50.960;6.830;2023-12-28T12:24:16;8.95;;;2.22;;
14732;SDS011;7457;50.960;6.830;2023-12-28T12:26:43;7.13;;;1.80;;
14732;SDS011;7457;50.960;6.830;2023-12-28T12:29:10;9.13;;;1.92;;
14732;SDS011;7457;50.960;6.830;2023-12-28T12:31:36;6.07;;;1.55;;
14732;SDS011;7457;50.960;6.830;2023-12-28T12:34:03;7.85;;;1.63;;
14732;SDS011;7457;50.960;6.830;2023-12-28T12:36:29;5.93;;;1.83;;
14732;SDS011;7457;50.960;6.830;2023-12-28T12:38:54;8.13;;;1.98;;
14732;SDS011;7457;50.960;6.830;2023-12-28T12:41:21;10.35;;;2.08;;
14732;SDS011;7457;50.960;6.830;2023-12-28T12:43:47;9.25;;;2.15;;
14732;SDS011;7457;50.960;6.830;2023-12-28T12:46:13;5.85;;;1.60;;
14732;SDS011;7457;50.960;6.830;2023-12-28T12:48:39;7.05;;;2.10;;
14732;SDS011;7457;50.960;6.830;2023-12-28T12:51:05;4.30;;;1.70;;
14732;SDS011;7457;50.960;6.830;2023-12-28T12:53:34;11.32;;;1.90;;
14732;SDS011;7457;50.960;6.830;2023-12-28T12:56:03;9.38;;;2.22;;
14732;SDS011;7457;50.960;6.830;2023-12-28T12:58:30;6.63;;;1.90;;
14732;SDS011;7457;50.960;6.830;2023-12-28T13:00:56;11.13;;;1.88;;
14732;SDS011;7457;50.960;6.830;2023-12-28T13:03:22;6.88;;;1.73;;
14732;SDS011;7457;50.960;6.830;2023-12-28T13:05:52;4.55;;;1.92;;
14732;SDS011;7457;50.960;6.830;2023-12-28T13:08:18;12.15;;;2.63;;
14732;SDS011;7457;50.960;6.830;2023-12-28T13:10:44;6.20;;;2.00;;
14732;SDS011;7457;50.960;6.830;2023-12-28T13:13:09;6.35;;;2.22;;
14732;SDS011;7457;50.960;6.830;2023-12-28T13:15:35;4.70;;;1.75;;
14732;SDS011;7457;50.960;6.830;2023-12-28T13:18:00;6.30;;;2.20;;
14732;SDS011;7457;50.960;6.830;2023-12-28T13:20:26;4.57;;;1.70;;
14732;SDS011;7457;50.960;6.830;2023-12-28T13:22:52;5.30;;;1.60;;
14732;SDS011;7457;50.960;6.830;2023-12-28T13:25:17;6.20;;;1.52;;
14732;SDS011;7457;50.960;6.830;2023-12-28T13:27:43;5.15;;;1.75;;
14732;SDS011;7457;50.960;6.830;2023-12-28T13:30:09;10.20;;;2.05;;
14732;SDS011;7457;50.960;6.830;2023-12-28T13:32:37;6.85;;;1.70;;
14732;SDS011;7457;50.960;6.830;2023-12-28T13:35:02;9.25;;;2.17;;
14732;SDS011;7457;50.960;6.830;2023-12-28T13:37:28;7.00;;;1.90;;
14732;SDS011;7457;50.960;6.830;2023-12-28T13:39:54;5.63;;;1.73;;
14732;SDS011;7457;50.960;6.830;2023-12-28T13:42:19;3.38;;;1.35;;
14732;SDS011;7457;50.960;6.830;2023-12-28T13:44:45;4.57;;;1.70;;
14732;SDS011;7457;50.960;6.830;2023-12-28T13:47:10;6.10;;;1.98;;
14732;SDS011;7457;50.960;6.830;2023-12-28T13:49:36;6.55;;;1.88;;
14732;SDS011;7457;50.960;6.830;2023-12-28T13:52:02;6.82;;;1.70;;
14732;SDS011;7457;50.960;6.830;2023-12-28T13:54:27;4.30;;;1.75;;
14732;SDS011;7457;50.960;6.830;2023-12-28T13:56:53;4.53;;;1.45;;
14732;SDS011;7457;50.960;6.830;2023-12-28T13:59:23;4.65;;;1.75;;
14732;SDS011;7457;50.960;6.830;2023-12-28T14:01:49;9.60;;;2.00;;
14732;SDS011;7457;50.960;6.830;2023-12-28T14:04:15;6.47;;;1.85;;
14732;SDS011;7457;50.960;6.830;2023-12-28T14:06:40;4.72;;;1.48;;
14732;SDS011;7457;50.960;6.830;2023-12-28T14:09:06;5.88;;;1.55;;
14732;SDS011;7457;50.960;6.830;2023-12-28T14:11:33;4.30;;;1.70;;
14732;SDS011;7457;50.960;6.830;2023-12-28T14:13:59;6.25;;;2.35;;
14732;SDS011;7457;50.960;6.830;2023-12-28T14:16:24;3.90;;;2.08;;
14732;SDS011;7457;50.960;6.830;2023-12-28T14:18:50;4.40;;;1.52;;
14732;SDS011;7457;50.960;6.830;2023-12-28T14:21:17;4.50;;;2.63;;
14732;SDS011;7457;50.960;6.830;2023-12-28T14:23:43;6.35;;;2.30;;
14732;SDS011;7457;50.960;6.830;2023-12-28T14:26:11;5.43;;;2.03;;
14732;SDS011;7457;50.960;6.830;2023-12-28T14:28:41;5.57;;;1.50;;
14732;SDS011;7457;50.960;6.830;2023-12-28T14:31:11;4.95;;;1.63;;
14732;SDS011;7457;50.960;6.830;2023-12-28T14:33:38;8.13;;;1.98;;
14732;SDS011;7457;50.960;6.830;2023-12-28T14:36:38;3.08;;;1.60;;
14732;SDS011;7457;50.960;6.830;2023-12-28T14:38:58;8.60;;;1.70;;
14732;SDS011;7457;50.960;6.830;2023-12-28T14:41:27;8.70;;;2.03;;
14732;SDS011;7457;50.960;6.830;2023-12-28T14:43:55;6.75;;;2.15;;
14732;SDS011;7457;50.960;6.830;2023-12-28T14:46:22;8.43;;;1.70;;
14732;SDS011;7457;50.960;6.830;2023-12-28T14:48:48;9.40;;;1.98;;
14732;SDS011;7457;50.960;6.830;2023-12-28T14:51:13;7.32;;;1.60;;
14732;SDS011;7457;50.960;6.830;2023-12-28T14:53:39;9.02;;;1.85;;
14732;SDS011;7457;50.960;6.830;2023-12-28T14:56:04;7.63;;;1.85;;
14732;SDS011;7457;50.960;6.830;2023-12-28T14:58:31;4.47;;;1.70;;